Terminal Aerodrome Forecast
Issued by NWS

Home | Current Version | Previous Version | Graphics & Text | Print | Product List | Glossary On
Versions: 1 2 3 4 5 6 7 8 9 10 11 12 13 14 15 16 17 18 19 20 21
000
FTUS43 KGRB 080500
TAFAUW
TAF
KAUW 080520Z 0806/0906 24005KT P6SM VCSH SCT007 SCT025 OVC070
      TEMPO 0806/0810 4SM SHRA BKN025
     FM081000 29004KT 5SM BR SCT010 OVC025
     FM081200 30009KT 4SM BR OVC010
     FM081600 30011KT P6SM VCSH SCT020 BKN040
     FM082300 30005KT P6SM SCT050 BKN100=

USA.gov is the U.S. government's official web portal to all federal, state and local government web resources and services.